createdAt,value
2022-12-12T00:02:26.762Z,65.55
2022-12-12T00:04:58.131Z,62.60
2022-12-12T00:07:26.277Z,61.90
2022-12-12T00:09:54.348Z,63.33
2022-12-12T00:12:22.577Z,61.42
2022-12-12T00:14:50.704Z,60.85
2022-12-12T00:17:20.287Z,60.03
2022-12-12T00:19:48.511Z,62.42
2022-12-12T00:22:16.626Z,57.75
2022-12-12T00:24:44.776Z,57.28
2022-12-12T00:27:13.191Z,56.97
2022-12-12T00:29:41.379Z,54.75
2022-12-12T00:32:09.452Z,57.85
2022-12-12T00:34:39.031Z,57.35
2022-12-12T00:37:07.160Z,54.20
2022-12-12T00:39:35.650Z,52.08
2022-12-12T00:42:03.851Z,52.78
2022-12-12T00:44:31.912Z,52.03
2022-12-12T00:47:00.081Z,53.20
2022-12-12T00:49:28.333Z,49.70
2022-12-12T00:51:57.811Z,51.45
2022-12-12T00:54:25.960Z,49.83
2022-12-12T00:56:54.026Z,48.92
2022-12-12T00:59:22.896Z,47.13
2022-12-12T01:01:51.060Z,49.58
2022-12-12T01:04:19.199Z,48.20
2022-12-12T01:06:49.255Z,46.28
2022-12-12T01:09:18.780Z,45.47
2022-12-12T01:11:47.496Z,45.40
2022-12-12T01:14:15.701Z,44.58
2022-12-12T01:16:43.930Z,43.63
2022-12-12T01:19:12.113Z,44.63
2022-12-12T01:21:40.185Z,43.03
2022-12-12T01:24:08.555Z,42.75
2022-12-12T01:26:38.003Z,41.33
2022-12-12T01:29:07.258Z,42.78
2022-12-12T01:31:35.401Z,42.78
2022-12-12T01:34:03.628Z,40.95
2022-12-12T01:36:31.737Z,40.28
2022-12-12T01:39:00.759Z,38.05
2022-12-12T01:41:28.937Z,40.47
2022-12-12T01:44:01.692Z,39.35
2022-12-12T01:46:43.922Z,36.80
2022-12-12T01:49:18.154Z,38.50
2022-12-12T01:51:47.408Z,36.38
2022-12-12T01:54:17.766Z,36.05
2022-12-12T01:56:46.068Z,36.17
2022-12-12T01:59:16.257Z,36.28
2022-12-12T02:01:45.265Z,35.42
2022-12-12T02:04:13.607Z,34.60
2022-12-12T02:06:41.884Z,35.25
2022-12-12T02:09:12.264Z,34.25
2022-12-12T02:11:44.249Z,34.75
2022-12-12T02:14:12.636Z,33.08
2022-12-12T02:16:51.318Z,31.80
2022-12-12T02:19:44.332Z,33.30
2022-12-12T02:22:15.488Z,31.33
2022-12-12T02:24:53.308Z,32.15
2022-12-12T02:27:42.075Z,29.55
2022-12-12T02:30:22.245Z,30.90
2022-12-12T02:33:22.866Z,28.30
2022-12-12T02:35:55.880Z,28.25
2022-12-12T02:38:28.705Z,29.05
2022-12-12T02:41:02.304Z,27.63
2022-12-12T02:43:33.008Z,27.35
2022-12-12T02:46:02.454Z,26.48
2022-12-12T02:48:32.939Z,26.85
2022-12-12T02:51:02.187Z,27.25
2022-12-12T02:53:30.270Z,27.25
2022-12-12T02:56:05.409Z,25.20
2022-12-12T02:58:33.893Z,23.92
2022-12-12T03:01:11.443Z,23.58
2022-12-12T03:04:00.508Z,23.95
2022-12-12T03:07:03.255Z,23.58
2022-12-12T03:09:35.347Z,23.55
2022-12-12T03:12:06.286Z,22.70
2022-12-12T03:14:39.959Z,23.08
2022-12-12T03:17:11.520Z,23.08
2022-12-12T03:19:42.933Z,21.88
2022-12-12T03:22:13.035Z,23.50
2022-12-12T03:24:43.193Z,23.05
2022-12-12T03:27:12.244Z,21.83
2022-12-12T03:29:41.388Z,21.35
2022-12-12T03:32:12.029Z,20.67
2022-12-12T03:34:43.445Z,20.85
2022-12-12T03:37:13.445Z,20.30
2022-12-12T03:39:43.454Z,18.98
2022-12-12T03:42:13.767Z,19.55
2022-12-12T03:44:44.785Z,19.98
2022-12-12T03:47:14.348Z,19.77
2022-12-12T03:49:46.605Z,19.25
2022-12-12T03:52:16.492Z,19.42
2022-12-12T03:54:47.146Z,19.02
2022-12-12T03:57:17.344Z,18.70
2022-12-12T03:59:45.973Z,17.02
2022-12-12T04:02:17.881Z,22.40
2022-12-12T04:04:49.764Z,18.25
2022-12-12T04:07:20.221Z,18.20
2022-12-12T04:10:05.723Z,16.63
2022-12-12T04:12:52.713Z,18.95
2022-12-12T04:15:37.646Z,15.77
2022-12-12T04:18:13.564Z,17.30
2022-12-12T04:21:03.098Z,16.67
2022-12-12T04:23:35.499Z,16.05
2022-12-12T04:26:29.580Z,15.90
2022-12-12T04:29:03.845Z,15.57
2022-12-12T04:31:32.430Z,15.80
2022-12-12T04:34:03.143Z,15.10
2022-12-12T04:36:32.770Z,15.02
2022-12-12T04:39:01.044Z,13.68
2022-12-12T04:41:29.345Z,13.85
2022-12-12T04:43:57.466Z,14.05
2022-12-12T04:46:26.134Z,14.85
2022-12-12T04:48:57.286Z,14.38
2022-12-12T04:51:27.508Z,14.20
2022-12-12T04:53:59.268Z,12.85
2022-12-12T04:56:28.574Z,12.45
2022-12-12T04:58:56.664Z,13.73
2022-12-12T05:01:26.957Z,12.70
2022-12-12T05:03:56.531Z,14.43
2022-12-12T05:06:28.688Z,12.93
2022-12-12T05:08:58.277Z,12.43
2022-12-12T05:11:26.373Z,12.57
2022-12-12T05:13:54.796Z,12.10
2022-12-12T05:16:27.417Z,11.90
2022-12-12T05:18:56.285Z,11.80
2022-12-12T05:21:24.481Z,11.45
2022-12-12T05:23:52.981Z,11.68
2022-12-12T05:26:24.240Z,12.23
2022-12-12T05:28:54.207Z,10.90
2022-12-12T05:31:22.584Z,10.85
2022-12-12T05:33:50.901Z,10.63
2022-12-12T05:36:19.313Z,11.52
2022-12-12T05:38:47.605Z,11.30
2022-12-12T05:41:16.060Z,14.30
2022-12-12T05:43:45.598Z,12.30
2022-12-12T05:46:13.911Z,10.25
2022-12-12T05:48:42.042Z,12.25
2022-12-12T05:51:10.232Z,10.90
2022-12-12T05:53:42.794Z,10.35
2022-12-12T05:56:12.620Z,9.50
2022-12-12T05:58:41.043Z,10.40
2022-12-12T06:01:11.232Z,9.82
2022-12-12T06:03:39.627Z,15.93
2022-12-12T06:06:09.765Z,26.73
2022-12-12T06:08:37.994Z,23.48
2022-12-12T06:11:07.346Z,24.10
2022-12-12T06:13:35.553Z,28.95
2022-12-12T06:16:07.881Z,40.15
2022-12-12T06:18:37.527Z,27.92
2022-12-12T06:21:06.350Z,25.85
2022-12-12T06:23:38.165Z,26.05
2022-12-12T06:26:06.592Z,30.45
2022-12-12T06:28:34.664Z,30.25
2022-12-12T06:31:05.640Z,38.78
2022-12-12T06:33:39.312Z,35.85
2022-12-12T06:36:08.565Z,42.05
2022-12-12T06:38:36.879Z,45.30
2022-12-12T06:41:07.332Z,42.85
2022-12-12T06:43:35.549Z,49.15
2022-12-12T06:46:04.104Z,45.10
2022-12-12T06:48:32.533Z,46.42
2022-12-12T06:51:02.259Z,49.22
2022-12-12T06:53:30.409Z,51.40
2022-12-12T06:55:58.538Z,60.05
2022-12-12T06:58:26.726Z,56.78
2022-12-12T07:00:55.001Z,52.90
2022-12-12T07:03:23.205Z,57.22
2022-12-12T07:05:51.272Z,66.55
2022-12-12T07:08:21.043Z,63.00
2022-12-12T07:10:49.265Z,60.63
2022-12-12T07:13:17.488Z,58.22
2022-12-12T07:15:45.984Z,57.72
2022-12-12T07:18:14.627Z,62.13
2022-12-12T07:20:43.157Z,60.20
2022-12-12T07:23:11.497Z,54.97
2022-12-12T07:25:41.481Z,58.25
2022-12-12T07:28:10.407Z,57.78
2022-12-12T07:30:39.860Z,59.90
2022-12-12T07:33:08.481Z,58.50
2022-12-12T07:35:36.976Z,56.50
2022-12-12T07:38:05.623Z,56.28
2022-12-12T07:40:34.003Z,56.30
2022-12-12T07:43:03.882Z,55.53
2022-12-12T07:45:32.281Z,55.45
2022-12-12T07:48:00.794Z,57.35
2022-12-12T07:50:29.332Z,54.45
2022-12-12T07:52:57.625Z,53.85
2022-12-12T07:55:25.877Z,52.65
2022-12-12T07:57:54.274Z,52.30
2022-12-12T08:00:24.081Z,52.63
2022-12-12T08:02:52.637Z,50.72
2022-12-12T08:05:21.062Z,51.88
2022-12-12T08:07:49.914Z,50.45
2022-12-12T08:10:19.023Z,50.47
2022-12-12T08:12:47.305Z,47.28
2022-12-12T08:15:16.870Z,47.33
2022-12-12T08:17:46.956Z,40.33
2022-12-12T08:20:17.175Z,53.22
2022-12-12T08:22:45.585Z,53.00
2022-12-12T08:25:14.881Z,49.72
2022-12-12T08:27:43.719Z,52.10
2022-12-12T08:30:12.440Z,51.45
2022-12-12T08:32:40.838Z,35.35
2022-12-12T08:35:11.961Z,41.75
2022-12-12T08:37:40.513Z,47.20
2022-12-12T08:40:11.034Z,53.88
2022-12-12T08:42:39.779Z,49.92
2022-12-12T08:45:08.890Z,54.78
2022-12-12T08:47:37.253Z,51.92
2022-12-12T08:50:06.855Z,48.20
2022-12-12T08:52:36.849Z,57.45
2022-12-12T08:55:05.586Z,47.90
2022-12-12T08:57:34.284Z,68.63
2022-12-12T09:00:02.576Z,57.67
2022-12-12T09:02:31.009Z,56.78
2022-12-12T09:04:59.428Z,51.47
2022-12-12T09:07:27.657Z,53.90
2022-12-12T09:09:58.622Z,59.88
2022-12-12T09:12:26.908Z,75.22
2022-12-12T09:14:55.636Z,60.53
2022-12-12T09:17:24.008Z,51.00
2022-12-12T09:19:52.450Z,50.28
2022-12-12T09:22:21.076Z,53.65
2022-12-12T09:24:49.855Z,51.70
2022-12-12T09:27:19.669Z,56.63
2022-12-12T09:29:47.993Z,45.65
2022-12-12T09:32:21.254Z,48.70
2022-12-12T09:34:52.976Z,45.42
2022-12-12T09:37:21.224Z,44.83
2022-12-12T09:39:49.552Z,46.35
2022-12-12T09:42:22.350Z,40.00
2022-12-12T09:44:51.168Z,41.17
2022-12-12T09:47:24.638Z,39.30
2022-12-12T09:49:53.829Z,38.10
2022-12-12T09:52:30.635Z,41.65
2022-12-12T09:54:59.237Z,38.22
2022-12-12T09:57:30.182Z,36.75
2022-12-12T09:59:59.634Z,39.47
2022-12-12T10:02:35.199Z,37.42
2022-12-12T10:05:04.045Z,38.38
2022-12-12T10:07:36.133Z,40.03
2022-12-12T10:10:07.208Z,38.60
2022-12-12T10:12:37.071Z,39.67
2022-12-12T10:15:06.995Z,38.13
2022-12-12T10:17:36.899Z,36.97
2022-12-12T10:20:06.425Z,35.72
2022-12-12T10:22:38.391Z,35.80
2022-12-12T10:25:10.032Z,42.72
2022-12-12T10:27:39.578Z,40.92
2022-12-12T10:30:16.662Z,40.83
2022-12-12T10:32:51.674Z,45.25
2022-12-12T10:35:26.794Z,44.05
2022-12-12T10:38:04.053Z,42.13
2022-12-12T10:40:40.766Z,48.88
2022-12-12T10:43:12.651Z,53.15
2022-12-12T10:45:46.939Z,53.13
2022-12-12T10:48:15.382Z,56.22
2022-12-12T10:50:44.633Z,57.33
2022-12-12T10:53:13.093Z,56.25
2022-12-12T10:55:45.102Z,55.63
2022-12-12T10:58:17.063Z,55.67
2022-12-12T11:00:45.914Z,55.40
2022-12-12T11:03:26.930Z,74.00
2022-12-12T11:05:55.221Z,70.63
2022-12-12T11:08:27.280Z,79.05
2022-12-12T11:11:07.000Z,72.90
2022-12-12T11:13:45.336Z,66.75
2022-12-12T11:16:15.768Z,71.15
2022-12-12T11:18:50.076Z,73.30
2022-12-12T11:21:18.269Z,79.82
2022-12-12T11:23:50.944Z,72.65
2022-12-12T11:26:19.807Z,76.43
2022-12-12T11:28:54.421Z,73.32
2022-12-12T11:31:23.577Z,73.70
2022-12-12T11:33:54.722Z,78.03
2022-12-12T11:36:23.955Z,75.80
2022-12-12T11:38:53.712Z,69.57
2022-12-12T11:41:22.291Z,71.90
2022-12-12T11:44:00.314Z,67.65
2022-12-12T11:46:29.961Z,72.28
2022-12-12T11:49:00.429Z,66.10
2022-12-12T11:51:33.516Z,64.13
2022-12-12T11:54:01.949Z,68.45
2022-12-12T11:56:35.029Z,66.72
2022-12-12T11:59:14.198Z,64.68
2022-12-12T12:01:46.158Z,70.68
2022-12-12T12:04:24.448Z,66.90
2022-12-12T12:07:00.337Z,68.38
2022-12-12T12:09:34.171Z,68.68
2022-12-12T12:12:07.383Z,67.72
2022-12-12T12:15:02.434Z,66.80
2022-12-12T12:17:41.740Z,68.97
2022-12-12T12:20:13.422Z,68.93
2022-12-12T12:22:46.599Z,71.55
2022-12-12T12:25:20.955Z,74.60
2022-12-12T12:27:52.152Z,72.45
2022-12-12T12:30:23.095Z,69.47
2022-12-12T12:33:11.601Z,69.10
2022-12-12T12:35:46.505Z,71.47
2022-12-12T12:38:20.872Z,78.15
2022-12-12T12:40:57.480Z,91.90
2022-12-12T12:43:34.680Z,73.82
2022-12-12T12:46:08.628Z,79.00
2022-12-12T12:48:37.897Z,78.40
2022-12-12T12:51:07.783Z,83.35
2022-12-12T12:53:38.022Z,87.60
2022-12-12T12:56:15.713Z,79.82
2022-12-12T12:58:45.448Z,102.30
2022-12-12T13:01:15.983Z,92.93
2022-12-12T13:03:46.861Z,101.70
2022-12-12T13:06:17.617Z,100.88
2022-12-12T13:08:50.563Z,102.05
2022-12-12T13:11:20.559Z,103.85
2022-12-12T13:13:49.286Z,111.20
2022-12-12T13:16:20.206Z,116.28
2022-12-12T13:18:49.870Z,113.80
2022-12-12T13:21:21.621Z,113.82
2022-12-12T13:23:55.683Z,107.25
2022-12-12T13:26:25.703Z,105.53
2022-12-12T13:28:55.727Z,102.82
2022-12-12T13:31:44.915Z,97.78
2022-12-12T13:34:13.652Z,102.63
2022-12-12T13:36:42.977Z,99.55
2022-12-12T13:39:25.045Z,67.63
2022-12-12T13:41:57.993Z,64.68
2022-12-12T13:44:37.130Z,63.75
2022-12-12T13:47:45.211Z,63.50
2022-12-12T13:50:20.651Z,64.50
2022-12-12T13:53:11.537Z,64.47
2022-12-12T13:55:39.718Z,61.75
2022-12-12T13:58:32.084Z,62.63
2022-12-12T14:01:27.627Z,63.30
2022-12-12T14:03:57.173Z,60.17
2022-12-12T14:06:28.051Z,60.53
2022-12-12T14:08:56.187Z,59.83
2022-12-12T14:11:28.213Z,60.92
2022-12-12T14:14:07.189Z,58.25
2022-12-12T14:16:35.464Z,59.03
2022-12-12T14:19:08.940Z,57.45
2022-12-12T14:21:45.051Z,58.33
2022-12-12T14:24:48.037Z,59.20
2022-12-12T14:27:16.713Z,56.30
2022-12-12T14:29:45.016Z,56.03
2022-12-12T14:32:31.637Z,53.13
2022-12-12T14:35:07.524Z,55.08
2022-12-12T14:37:40.132Z,53.38
2022-12-12T14:40:14.361Z,53.40
2022-12-12T14:43:20.625Z,49.28
2022-12-12T14:45:42.145Z,48.97
2022-12-12T14:48:17.781Z,50.67
2022-12-12T14:50:49.544Z,52.63
2022-12-12T14:53:18.833Z,50.17
2022-12-12T14:55:51.265Z,49.22
2022-12-12T14:58:23.187Z,48.28
2022-12-12T15:00:52.470Z,50.58
2022-12-12T15:03:29.447Z,47.70
2022-12-12T15:06:25.362Z,49.70
2022-12-12T15:08:53.734Z,47.60
2022-12-12T15:11:22.897Z,46.65
2022-12-12T15:13:52.592Z,44.05
2022-12-12T15:16:20.898Z,47.05
2022-12-12T15:18:49.217Z,44.35
2022-12-12T15:21:17.393Z,44.88
2022-12-12T15:23:46.972Z,44.97
2022-12-12T15:26:17.817Z,41.55
2022-12-12T15:28:46.220Z,42.67
2022-12-12T15:31:15.472Z,42.63
2022-12-12T15:33:43.724Z,44.33
2022-12-12T15:36:20.336Z,41.75
2022-12-12T15:41:44.900Z,41.25
2022-12-12T15:44:17.627Z,43.00
2022-12-12T15:46:45.919Z,40.42
2022-12-12T15:49:39.385Z,41.30
2022-12-12T15:52:13.121Z,47.83
2022-12-12T15:54:47.302Z,45.72
2022-12-12T15:57:18.724Z,48.78
2022-12-12T15:59:46.958Z,51.42
2022-12-12T16:02:31.908Z,57.75
2022-12-12T16:05:03.523Z,58.33
2022-12-12T16:07:37.544Z,54.70
2022-12-12T16:10:21.166Z,60.90
2022-12-12T16:13:01.589Z,60.38
2022-12-12T16:15:31.873Z,59.78
2022-12-12T16:18:01.447Z,60.85
2022-12-12T16:20:30.688Z,56.45
2022-12-12T16:23:10.377Z,58.30
2022-12-12T16:25:39.535Z,57.03
2022-12-12T16:28:24.734Z,57.65
2022-12-12T16:30:57.538Z,58.25
2022-12-12T16:33:29.562Z,57.70
2022-12-12T16:35:58.358Z,54.38
2022-12-12T16:38:26.578Z,60.15
2022-12-12T16:40:54.951Z,52.53
2022-12-12T16:43:25.206Z,52.97
2022-12-12T16:45:53.899Z,55.20
2022-12-12T16:48:22.925Z,53.40
2022-12-12T16:50:51.852Z,52.47
2022-12-12T16:53:20.269Z,55.17
2022-12-12T16:55:49.951Z,54.13
2022-12-12T16:58:18.277Z,53.88
2022-12-12T17:00:47.845Z,58.33
2022-12-12T17:03:16.469Z,50.92
2022-12-12T17:05:44.880Z,54.28
2022-12-12T17:08:13.428Z,50.03
2022-12-12T17:10:41.642Z,54.20
2022-12-12T17:13:14.408Z,51.20
2022-12-12T17:15:42.878Z,50.85
2022-12-12T17:18:13.905Z,53.40
2022-12-12T17:20:42.230Z,60.88
2022-12-12T17:23:29.964Z,58.72
2022-12-12T17:26:03.596Z,57.10
2022-12-12T17:28:33.007Z,57.92
2022-12-12T17:31:01.319Z,59.47
2022-12-12T17:33:31.164Z,58.90
2022-12-12T17:36:00.405Z,63.63
2022-12-12T17:38:30.641Z,60.75
2022-12-12T17:40:59.315Z,61.80
2022-12-12T17:43:27.613Z,60.15
2022-12-12T17:46:00.033Z,65.72
2022-12-12T17:48:41.834Z,69.57
2022-12-12T17:51:12.215Z,80.80
2022-12-12T17:53:40.492Z,75.32
2022-12-12T17:56:09.516Z,77.65
2022-12-12T17:58:37.931Z,78.28
2022-12-12T18:01:12.716Z,76.97
2022-12-12T18:03:42.720Z,79.07
2022-12-12T18:06:11.296Z,76.55
2022-12-12T18:08:39.556Z,71.25
2022-12-12T18:11:08.920Z,74.38
2022-12-12T18:13:38.937Z,90.13
2022-12-12T18:16:07.880Z,82.88
2022-12-12T18:18:36.518Z,80.30
2022-12-12T18:21:06.816Z,78.78
2022-12-12T18:23:35.271Z,78.45
2022-12-12T18:26:04.934Z,80.68
2022-12-12T18:28:33.236Z,76.57
2022-12-12T18:31:01.845Z,74.95
2022-12-12T18:33:30.088Z,74.50
2022-12-12T18:36:02.996Z,72.78
2022-12-12T18:38:32.749Z,73.70
2022-12-12T18:41:01.136Z,67.75
2022-12-12T18:43:30.178Z,64.07
2022-12-12T18:46:02.038Z,62.03
2022-12-12T18:48:33.229Z,66.18
2022-12-12T18:51:06.164Z,67.93
2022-12-12T18:53:36.143Z,69.68
2022-12-12T18:56:07.032Z,67.07
2022-12-12T18:58:35.354Z,69.00
2022-12-12T19:01:05.076Z,72.05
2022-12-12T19:03:33.269Z,68.68
2022-12-12T19:06:04.669Z,74.55
2022-12-12T19:08:32.828Z,141.65
2022-12-12T19:11:02.483Z,137.05
2022-12-12T19:13:31.477Z,136.57
2022-12-12T19:16:04.787Z,126.20
2022-12-12T19:18:33.102Z,122.80
2022-12-12T19:21:05.952Z,122.47
2022-12-12T19:23:35.148Z,125.25
2022-12-12T19:26:08.288Z,122.13
2022-12-12T19:28:36.548Z,118.38
2022-12-12T19:31:07.767Z,115.47
2022-12-12T19:33:36.040Z,112.30
2022-12-12T19:36:10.257Z,119.00
2022-12-12T19:38:38.492Z,111.55
2022-12-12T19:41:09.223Z,110.60
2022-12-12T19:43:37.743Z,111.88
2022-12-12T19:46:06.787Z,109.68
2022-12-12T19:48:35.301Z,105.32
2022-12-12T19:51:08.498Z,112.30
2022-12-12T19:53:39.901Z,101.65
2022-12-12T19:56:09.947Z,101.70
2022-12-12T19:58:38.979Z,96.50
2022-12-12T20:01:08.896Z,93.57
2022-12-12T20:03:37.254Z,98.80
2022-12-12T20:06:06.992Z,92.93
2022-12-12T20:08:35.621Z,95.13
2022-12-12T20:11:05.303Z,88.18
2022-12-12T20:13:35.242Z,106.50
2022-12-12T20:16:07.690Z,94.38
2022-12-12T20:18:35.973Z,95.40
2022-12-12T20:21:04.346Z,97.13
2022-12-12T20:23:32.837Z,95.18
2022-12-12T20:26:03.439Z,94.03
2022-12-12T20:28:32.005Z,88.25
2022-12-12T20:31:09.041Z,87.38
2022-12-12T20:33:37.561Z,90.07
2022-12-12T20:36:07.281Z,79.97
2022-12-12T20:38:35.976Z,80.97
2022-12-12T20:41:04.185Z,79.00
2022-12-12T20:43:32.531Z,82.05
2022-12-12T20:46:00.966Z,71.57
2022-12-12T20:48:30.956Z,74.50
2022-12-12T20:50:59.482Z,69.95
2022-12-12T20:53:29.880Z,73.88
2022-12-12T20:56:07.794Z,72.90
2022-12-12T20:58:39.095Z,68.85
2022-12-12T21:01:11.405Z,64.05
2022-12-12T21:03:41.257Z,69.88
2022-12-12T21:06:14.077Z,65.10
2022-12-12T21:08:42.488Z,68.68
2022-12-12T21:11:10.904Z,64.82
2022-12-12T21:13:39.380Z,66.22
2022-12-12T21:16:11.117Z,59.05
2022-12-12T21:18:41.032Z,59.55
2022-12-12T21:21:11.701Z,61.15
2022-12-12T21:23:40.013Z,57.85
2022-12-12T21:26:08.968Z,56.83
2022-12-12T21:28:37.611Z,59.13
2022-12-12T21:31:06.951Z,55.45
2022-12-12T21:33:36.007Z,55.85
2022-12-12T21:36:06.501Z,55.47
2022-12-12T21:38:34.813Z,52.60
2022-12-12T21:41:05.132Z,52.80
2022-12-12T21:43:34.518Z,50.25
2022-12-12T21:46:04.203Z,51.22
2022-12-12T21:48:32.590Z,51.95
2022-12-12T21:51:02.087Z,49.60
2022-12-12T21:53:34.904Z,47.95
2022-12-12T21:56:07.145Z,47.20
2022-12-12T21:58:35.774Z,45.42
2022-12-12T22:01:07.740Z,45.42
2022-12-12T22:03:36.210Z,44.38
2022-12-12T22:06:10.898Z,44.55
2022-12-12T22:08:40.867Z,41.97
2022-12-12T22:11:09.645Z,41.17
2022-12-12T22:13:40.220Z,37.88
2022-12-12T22:16:10.689Z,41.35
2022-12-12T22:18:39.028Z,40.90
2022-12-12T22:21:07.864Z,39.00
2022-12-12T22:23:37.687Z,34.95
2022-12-12T22:26:15.776Z,35.08
2022-12-12T22:28:44.206Z,34.90
2022-12-12T22:31:12.409Z,40.38
2022-12-12T22:33:40.778Z,37.40
2022-12-12T22:36:10.114Z,35.20
2022-12-12T22:38:38.866Z,34.78
2022-12-12T22:41:08.429Z,32.17
2022-12-12T22:43:38.220Z,34.40
2022-12-12T22:46:07.117Z,32.70
2022-12-12T22:48:35.479Z,32.28
2022-12-12T22:51:13.596Z,30.65
2022-12-12T22:53:44.361Z,29.85
2022-12-12T22:56:12.977Z,32.20
2022-12-12T22:58:42.684Z,32.55
2022-12-12T23:01:12.915Z,31.15
2022-12-12T23:03:41.233Z,28.83
2022-12-12T23:06:12.284Z,30.10
2022-12-12T23:08:40.714Z,29.90
2022-12-12T23:11:09.577Z,30.92
2022-12-12T23:13:39.359Z,30.02
2022-12-12T23:16:13.528Z,27.67
2022-12-12T23:18:41.946Z,27.27
2022-12-12T23:21:16.286Z,28.05
2022-12-12T23:23:45.193Z,29.08
2022-12-12T23:26:14.261Z,27.13
2022-12-12T23:28:42.756Z,26.33
2022-12-12T23:31:13.140Z,24.67
2022-12-12T23:33:41.745Z,25.10
2022-12-12T23:36:10.380Z,27.40
2022-12-12T23:38:38.844Z,25.35
2022-12-12T23:41:07.426Z,23.52
2022-12-12T23:43:35.764Z,25.67
2022-12-12T23:46:04.562Z,25.55
2022-12-12T23:48:34.465Z,24.48
2022-12-12T23:51:02.805Z,23.05
2022-12-12T23:53:32.414Z,23.33
2022-12-12T23:56:05.086Z,23.52
2022-12-12T23:58:33.261Z,22.77
